»·PEaware :: N9273T KSNA-KONT

N9273T :: KSNA-KONT

FLIGHT INFORMATION

Flight Status: Arrived
Operator: Privately registered:
United States
More flights under this callsign
Pilot: Jim L. (28297)
Aircraft: CESSNA 210 CENTURION
(C210)
More flights by this aircraft type
Origin: KSNA John Wayne-Orange Co
United States
Destination: KONT Ontario Intl
United States
More flights between these airports :: More routes between these airports
Route: +SLI V8 PDZ
File this flight plan on PilotEdge
Remarks: TEC route CSTP13
Altitude:
(Current/Filed)
5,000ft
Speed:
(Current/Filed)
140kts
Departed: 23-Jun-20 06:03 PM
Arrived: 23-Jun-20 06:38 PM
Distance/Time
Traveled:
26nm/0:34
Distance/Time
To Go:
Arrived

Flight Plot

Page will automatically refresh every two minutes.


Map Options




Map Legend


Flown Route
Filed Route
Departure Airport
Arrival Airport
Navaid (VOR, NDB)
Fix

Horizontal Profiles

Position Reports

Time Latitude Longitude Heading Altitude Ground
Speed
23-Jun-20 17:40 33.673571 -117.872562 297 60ft 0kts
23-Jun-20 17:41 33.673571 -117.872562 297 60ft 0kts
23-Jun-20 17:42 33.673571 -117.872562 297 60ft 0kts
23-Jun-20 17:43 33.673571 -117.872562 297 60ft 0kts
23-Jun-20 17:44 33.673571 -117.872562 297 60ft 0kts
23-Jun-20 17:45 33.673571 -117.872562 297 60ft 0kts
23-Jun-20 17:46 33.673571 -117.872562 297 60ft 0kts
23-Jun-20 17:47 33.673571 -117.872562 297 60ft 0kts
23-Jun-20 17:48 33.673571 -117.872562 297 60ft 0kts
23-Jun-20 17:49 33.673571 -117.872562 297 60ft 0kts
23-Jun-20 17:50 33.673571 -117.872562 297 60ft 0kts
23-Jun-20 17:51 33.673571 -117.872562 297 60ft 0kts
23-Jun-20 17:52 33.673571 -117.872562 297 60ft 0kts
23-Jun-20 17:53 33.673571 -117.872562 297 60ft 0kts
23-Jun-20 17:54 33.673571 -117.872562 297 60ft 0kts
23-Jun-20 17:54 33.673571 -117.872562 297 60ft 0kts
23-Jun-20 17:56 33.673571 -117.872562 297 60ft 0kts
23-Jun-20 17:57 33.673571 -117.872562 297 60ft 0kts
23-Jun-20 17:57 33.673574 -117.872567 298 60ft 0kts
23-Jun-20 17:58 33.675231 -117.870589 28 60ft 16kts
23-Jun-20 17:59 33.680109 -117.867744 33 60ft 15kts
23-Jun-20 18:00 33.681233 -117.866552 108 60ft 0kts
23-Jun-20 18:01 33.680532 -117.865825 193 60ft 17kts
23-Jun-20 18:02 33.662850 -117.877984 217 470ft 101kts
23-Jun-20 18:03 33.644797 -117.905916 233 1390ft 109kts
23-Jun-20 18:04 33.626696 -117.935423 234 2317ft 108kts
23-Jun-20 18:05 33.609150 -117.964562 231 3250ft 107kts
23-Jun-20 18:06 33.592934 -117.992770 267 4236ft 101kts
23-Jun-20 18:07 33.613957 -118.009044 347 5063ft 113kts
23-Jun-20 18:08 33.651438 -118.019097 347 5055ft 147kts
23-Jun-20 18:09 33.691172 -118.029865 347 5054ft 146kts
23-Jun-20 18:10 33.731037 -118.040719 347 5054ft 145kts
23-Jun-20 18:11 33.770612 -118.051189 356 5051ft 145kts
23-Jun-20 18:12 33.793413 -118.016403 72 5055ft 145kts
23-Jun-20 18:13 33.805456 -117.969881 72 5054ft 145kts
23-Jun-20 18:14 33.817481 -117.923369 72 5054ft 145kts
23-Jun-20 18:15 33.829525 -117.876761 72 5054ft 145kts
23-Jun-20 18:16 33.841504 -117.830328 72 5054ft 144kts
23-Jun-20 18:17 33.853453 -117.783934 72 5055ft 145kts
23-Jun-20 18:18 33.864906 -117.737135 72 5055ft 145kts
23-Jun-20 18:19 33.877028 -117.690627 72 5062ft 145kts
23-Jun-20 18:20 33.889120 -117.643875 72 5064ft 146kts
23-Jun-20 18:21 33.901149 -117.597233 72 5064ft 146kts
23-Jun-20 18:22 33.914016 -117.550918 70 5064ft 146kts
23-Jun-20 18:23 33.927897 -117.504806 69 5064ft 146kts
23-Jun-20 18:24 33.941902 -117.458860 69 5064ft 146kts
23-Jun-20 18:25 33.955937 -117.412832 69 5064ft 146kts
23-Jun-20 18:26 33.970160 -117.366144 69 4749ft 152kts
23-Jun-20 18:27 33.984723 -117.318354 69 4364ft 151kts
23-Jun-20 18:28 34.012421 -117.288118 348 4366ft 150kts
23-Jun-20 18:29 34.050975 -117.303482 340 4357ft 134kts
23-Jun-20 18:30 34.073851 -117.334644 291 3976ft 144kts
23-Jun-20 18:31 34.067822 -117.382918 253 3459ft 140kts
23-Jun-20 18:32 34.057332 -117.424283 255 3460ft 121kts
23-Jun-20 18:33 34.054837 -117.468396 270 2874ft 127kts
23-Jun-20 18:34 34.054900 -117.509032 270 2185ft 118kts
23-Jun-20 18:35 34.054931 -117.541699 269 1649ft 86kts
23-Jun-20 18:36 34.054980 -117.568808 270 1228ft 78kts
23-Jun-20 18:37 34.054932 -117.590647 271 947ft 32kts
23-Jun-20 18:38 34.053828 -117.596361 269 947ft 27kts
23-Jun-20 18:39 34.053140 -117.603722 184 947ft 11kts
23-Jun-20 18:40 34.052683 -117.603735 179 947ft 0kts

Navigation Log

Ident Type
Flight plan parsing failed, navigation log unavailable